createdAt,value
2023-05-16T00:00:58.446Z,101303.63
2023-05-16T00:03:25.278Z,101304.63
2023-05-16T00:05:51.945Z,101306.69
2023-05-16T00:08:18.563Z,101302.09
2023-05-16T00:10:44.956Z,101304.72
2023-05-16T00:13:11.670Z,101312.94
2023-05-16T00:15:38.671Z,101310.69
2023-05-16T00:18:05.683Z,101313.22
2023-05-16T00:20:32.239Z,101314.78
2023-05-16T00:23:01.551Z,101305.91
2023-05-16T00:25:28.653Z,101313.41
2023-05-16T00:27:55.707Z,101315.94
2023-05-16T00:30:22.772Z,101312.56
2023-05-16T00:32:51.743Z,101322.75
2023-05-16T00:35:18.229Z,101318.59
2023-05-16T00:37:45.045Z,101326.06
2023-05-16T00:40:11.694Z,101322.72
2023-05-16T00:42:39.147Z,101318.22
2023-05-16T00:45:06.831Z,101314.53
2023-05-16T00:47:33.793Z,101328.16
2023-05-16T00:50:01.939Z,101328.16
2023-05-16T00:52:28.782Z,101330.41
2023-05-16T00:54:55.531Z,101325.78
2023-05-16T00:57:22.541Z,101333.03
2023-05-16T00:59:49.906Z,101317.94
2023-05-16T01:02:17.477Z,101328.25
2023-05-16T01:04:45.966Z,101321.59
2023-05-16T01:07:12.582Z,101331.78
2023-05-16T01:09:39.263Z,101333.31
2023-05-16T01:12:16.478Z,101334.13
2023-05-16T01:15:00.761Z,101343.63
2023-05-16T01:17:52.797Z,101339.75
2023-05-16T01:20:25.682Z,101343.66
2023-05-16T01:23:11.604Z,101348.94
2023-05-16T01:25:41.036Z,101352.44
2023-05-16T01:28:07.604Z,101354.38
2023-05-16T01:30:39.617Z,101347.81
2023-05-16T01:33:08.620Z,101352.00
2023-05-16T01:35:43.555Z,101357.53
2023-05-16T01:38:18.679Z,101354.22
2023-05-16T01:40:58.902Z,101352.00
2023-05-16T01:43:34.488Z,101360.34
2023-05-16T01:46:12.540Z,101350.47
2023-05-16T01:48:47.282Z,101356.28
2023-05-16T01:51:14.078Z,101351.72
2023-05-16T01:53:40.830Z,101352.00
2023-05-16T01:56:15.121Z,101357.00
2023-05-16T01:58:43.525Z,101353.09
2023-05-16T02:01:10.263Z,101362.03
2023-05-16T02:03:37.868Z,101356.47
2023-05-16T02:06:04.938Z,101359.50
2023-05-16T02:08:31.781Z,101357.41
2023-05-16T02:10:58.189Z,101361.75
2023-05-16T02:13:24.839Z,101362.41
2023-05-16T02:15:51.547Z,101362.00
2023-05-16T02:18:18.954Z,101362.81
2023-05-16T02:20:45.558Z,101354.78
2023-05-16T02:23:12.162Z,101354.22
2023-05-16T02:25:38.787Z,101349.47
2023-05-16T02:28:05.323Z,101357.00
2023-05-16T02:30:32.045Z,101356.16
2023-05-16T02:32:58.554Z,101353.09
2023-05-16T02:35:25.256Z,101359.09
2023-05-16T02:37:51.849Z,101358.81
2023-05-16T02:40:18.634Z,101362.69
2023-05-16T02:42:45.180Z,101368.81
2023-05-16T02:45:12.221Z,101368.53
2023-05-16T02:47:38.682Z,101373.97
2023-05-16T02:50:06.277Z,101380.63
2023-05-16T02:52:33.996Z,101367.56
2023-05-16T02:55:16.933Z,101367.16
2023-05-16T02:57:46.849Z,101374.63
2023-05-16T03:00:15.176Z,101374.50
2023-05-16T03:02:43.907Z,101374.88
2023-05-16T03:05:11.321Z,101375.00
2023-05-16T03:07:38.769Z,101383.94
2023-05-16T03:10:06.117Z,101387.44
2023-05-16T03:12:32.589Z,101387.28
2023-05-16T03:14:59.266Z,101389.22
2023-05-16T03:17:26.002Z,101393.69
2023-05-16T03:19:52.762Z,101396.06
2023-05-16T03:22:19.195Z,101391.19
2023-05-16T03:24:45.998Z,101393.44
2023-05-16T03:27:12.476Z,101400.78
2023-05-16T03:29:38.978Z,101394.50
2023-05-16T03:32:05.946Z,101390.78
2023-05-16T03:34:33.039Z,101393.38
2023-05-16T03:36:59.526Z,101390.44
2023-05-16T03:39:26.336Z,101398.38
2023-05-16T03:41:56.118Z,101399.75
2023-05-16T03:44:22.934Z,101401.13
2023-05-16T03:46:51.332Z,101407.25
2023-05-16T03:49:18.260Z,101407.94
2023-05-16T03:51:44.671Z,101393.34
2023-05-16T03:54:11.188Z,101416.94
2023-05-16T03:56:37.653Z,101409.16
2023-05-16T03:59:04.226Z,101414.56
2023-05-16T04:01:30.660Z,101427.22
2023-05-16T04:03:57.255Z,101421.94
2023-05-16T04:06:23.916Z,101428.88
2023-05-16T04:08:50.390Z,101439.69
2023-05-16T04:11:16.953Z,101431.78
2023-05-16T04:13:43.448Z,101434.97
2023-05-16T04:16:09.965Z,101435.00
2023-05-16T04:18:36.599Z,101434.97
2023-05-16T04:21:03.361Z,101440.72
2023-05-16T04:23:29.966Z,101449.63
2023-05-16T04:25:56.983Z,101444.75
2023-05-16T04:28:23.425Z,101452.13
2023-05-16T04:30:50.685Z,101454.75
2023-05-16T04:33:17.590Z,101457.91
2023-05-16T04:35:44.129Z,101459.00
2023-05-16T04:38:10.655Z,101460.81
2023-05-16T04:40:37.734Z,101462.94
2023-05-16T04:43:04.240Z,101464.34
2023-05-16T04:45:30.725Z,101472.97
2023-05-16T04:47:57.553Z,101466.72
2023-05-16T04:50:24.440Z,101472.25
2023-05-16T04:52:50.909Z,101467.94
2023-05-16T04:55:17.408Z,101471.41
2023-05-16T04:57:43.895Z,101465.69
2023-05-16T05:00:12.062Z,101477.72
2023-05-16T05:02:38.968Z,101484.66
2023-05-16T05:05:06.675Z,101489.06
2023-05-16T05:07:33.350Z,101485.94
2023-05-16T05:09:59.861Z,101474.84
2023-05-16T05:12:27.723Z,101490.84
2023-05-16T05:14:54.806Z,101487.94
2023-05-16T05:17:21.754Z,101484.94
2023-05-16T05:19:48.384Z,101501.84
2023-05-16T05:22:15.055Z,101492.91
2023-05-16T05:24:41.583Z,101498.19
2023-05-16T05:27:08.154Z,101497.41
2023-05-16T05:29:34.565Z,101494.38
2023-05-16T05:32:01.238Z,101499.25
2023-05-16T05:34:27.710Z,101505.41
2023-05-16T05:36:54.285Z,101505.06
2023-05-16T05:39:20.757Z,101508.47
2023-05-16T05:41:47.433Z,101500.41
2023-05-16T05:44:13.966Z,101514.03
2023-05-16T05:46:40.982Z,101521.81
2023-05-16T05:49:07.709Z,101510.56
2023-05-16T05:51:34.268Z,101521.84
2023-05-16T05:54:01.650Z,101522.34
2023-05-16T05:56:28.433Z,101517.66
2023-05-16T05:58:54.925Z,101517.97
2023-05-16T06:01:22.258Z,101525.91
2023-05-16T06:03:48.742Z,101520.41
2023-05-16T06:06:15.563Z,101523.09
2023-05-16T06:08:41.977Z,101531.81
2023-05-16T06:11:09.009Z,101534.88
2023-05-16T06:13:35.549Z,101524.69
2023-05-16T06:16:02.119Z,101528.78
2023-05-16T06:18:29.754Z,101525.91
2023-05-16T06:20:56.300Z,101524.03
2023-05-16T06:23:22.707Z,101521.94
2023-05-16T06:25:49.305Z,101531.72
2023-05-16T06:28:15.814Z,101537.56
2023-05-16T06:30:42.268Z,101539.78
2023-05-16T06:33:08.829Z,101534.09
2023-05-16T06:35:35.489Z,101533.09
2023-05-16T06:38:01.918Z,101534.34
2023-05-16T06:40:28.430Z,101545.06
2023-05-16T06:42:54.934Z,101548.97
2023-05-16T06:45:21.458Z,101540.38
2023-05-16T06:47:48.069Z,101541.91
2023-05-16T06:50:14.564Z,101552.34
2023-05-16T06:52:42.282Z,101552.84
2023-05-16T06:55:09.372Z,101552.16
2023-05-16T06:57:36.197Z,101551.50
2023-05-16T07:00:02.742Z,101555.09
2023-05-16T07:02:29.385Z,101565.25
2023-05-16T07:04:55.897Z,101560.53
2023-05-16T07:07:22.478Z,101567.78
2023-05-16T07:09:48.883Z,101562.88
2023-05-16T07:12:15.469Z,101566.00
2023-05-16T07:14:43.456Z,101573.78
2023-05-16T07:17:10.763Z,101567.91
2023-05-16T07:19:37.314Z,101574.03
2023-05-16T07:22:03.872Z,101568.53
2023-05-16T07:24:30.427Z,101578.13
2023-05-16T07:26:57.161Z,101576.53
2023-05-16T07:29:23.666Z,101570.31
2023-05-16T07:31:50.212Z,101584.78
2023-05-16T07:34:17.132Z,101586.47
2023-05-16T07:36:43.719Z,101594.84
2023-05-16T07:39:10.366Z,101596.09
2023-05-16T07:41:37.086Z,101597.16
2023-05-16T07:44:03.609Z,101591.88
2023-05-16T07:46:30.158Z,101598.03
2023-05-16T07:48:56.668Z,101584.53
2023-05-16T07:51:23.171Z,101590.50
2023-05-16T07:53:49.640Z,101583.19
2023-05-16T07:56:16.319Z,101574.66
2023-05-16T07:58:42.951Z,101574.75
2023-05-16T08:01:09.646Z,101583.56
2023-05-16T08:03:36.745Z,101589.47
2023-05-16T08:06:03.426Z,101597.19
2023-05-16T08:08:29.930Z,101589.69
2023-05-16T08:10:56.562Z,101596.63
2023-05-16T08:13:23.150Z,101606.09
2023-05-16T08:15:49.852Z,101598.31
2023-05-16T08:18:16.870Z,101612.69
2023-05-16T08:20:43.642Z,101609.91
2023-05-16T08:23:11.304Z,101600.91
2023-05-16T08:25:37.888Z,101604.50
2023-05-16T08:28:04.379Z,101603.69
2023-05-16T08:30:30.968Z,101611.81
2023-05-16T08:32:57.693Z,101619.72
2023-05-16T08:35:24.244Z,101611.84
2023-05-16T08:37:50.943Z,101599.28
2023-05-16T08:40:17.489Z,101610.41
2023-05-16T08:42:45.379Z,101587.53
2023-05-16T08:45:12.660Z,101588.34
2023-05-16T08:47:41.285Z,101573.16
2023-05-16T08:50:10.424Z,101579.69
2023-05-16T08:52:38.907Z,101563.72
2023-05-16T08:55:10.884Z,101564.03
2023-05-16T08:57:39.243Z,101566.22
2023-05-16T09:00:12.986Z,101564.03
2023-05-16T09:02:41.488Z,101566.56
2023-05-16T09:05:11.032Z,101564.16
2023-05-16T09:07:37.624Z,101568.72
2023-05-16T09:10:06.905Z,101580.41
2023-05-16T09:12:34.359Z,101578.97
2023-05-16T09:15:03.853Z,101582.44
2023-05-16T09:17:39.847Z,101589.41
2023-05-16T09:20:11.872Z,101580.09
2023-05-16T09:22:39.273Z,101578.88
2023-05-16T09:25:08.634Z,101582.78
2023-05-16T09:27:40.898Z,101588.66
2023-05-16T09:30:08.585Z,101593.75
2023-05-16T09:32:35.071Z,101601.38
2023-05-16T09:35:01.614Z,101597.25
2023-05-16T09:37:28.219Z,101592.22
2023-05-16T09:39:57.907Z,101600.72
2023-05-16T09:42:25.667Z,101609.38
2023-05-16T09:44:54.484Z,101613.91
2023-05-16T09:47:22.019Z,101628.50
2023-05-16T09:49:53.119Z,101643.97
2023-05-16T09:52:19.998Z,101654.84
2023-05-16T09:54:49.949Z,101651.06
2023-05-16T09:57:20.383Z,101637.25
2023-05-16T09:59:46.913Z,101637.81
2023-05-16T10:02:14.336Z,101620.00
2023-05-16T10:04:41.537Z,101619.16
2023-05-16T10:07:09.717Z,101621.28
2023-05-16T10:09:36.990Z,101632.41
2023-05-16T10:12:08.168Z,101634.44
2023-05-16T10:14:36.946Z,101623.94
2023-05-16T10:17:06.509Z,101625.66
2023-05-16T10:19:38.608Z,101637.91
2023-05-16T10:22:07.072Z,101641.19
2023-05-16T10:24:43.783Z,101625.47
2023-05-16T10:27:10.876Z,101621.59
2023-05-16T10:29:46.806Z,101631.06
2023-05-16T10:32:23.612Z,101632.47
2023-05-16T10:34:51.096Z,101642.88
2023-05-16T10:37:17.740Z,101673.53
2023-05-16T10:39:44.772Z,101671.81
2023-05-16T10:42:11.802Z,101667.00
2023-05-16T10:44:39.907Z,101670.28
2023-05-16T10:47:06.993Z,101672.53
2023-05-16T10:49:33.711Z,101675.25
2023-05-16T10:52:09.500Z,101676.59
2023-05-16T10:54:44.813Z,101666.53
2023-05-16T10:57:23.622Z,101672.69
2023-05-16T10:59:51.749Z,101667.06
2023-05-16T11:02:33.688Z,101665.16
2023-05-16T11:05:03.446Z,101654.56
2023-05-16T11:07:34.941Z,101670.00
2023-05-16T11:10:16.048Z,101655.03
2023-05-16T11:12:45.193Z,101651.69
2023-05-16T11:15:26.072Z,101654.63
2023-05-16T11:18:16.847Z,101660.19
2023-05-16T11:20:43.685Z,101655.19
2023-05-16T11:23:19.071Z,101662.41
2023-05-16T11:25:47.183Z,101655.63
2023-05-16T11:28:14.449Z,101657.03
2023-05-16T11:30:46.491Z,101646.00
2023-05-16T11:33:13.489Z,101645.41
2023-05-16T11:35:40.268Z,101644.44
2023-05-16T11:38:06.753Z,101629.22
2023-05-16T11:40:33.307Z,101639.22
2023-05-16T11:43:04.235Z,101639.66
2023-05-16T11:45:32.554Z,101638.69
2023-05-16T11:48:04.070Z,101638.94
2023-05-16T11:50:31.003Z,101648.31
2023-05-16T11:52:57.991Z,101645.75
2023-05-16T11:55:41.300Z,101661.84
2023-05-16T11:58:09.529Z,101663.31
2023-05-16T12:00:36.603Z,101688.47
2023-05-16T12:03:05.546Z,101696.75
2023-05-16T12:05:35.060Z,101684.94
2023-05-16T12:08:02.708Z,101695.16
2023-05-16T12:10:31.743Z,101682.66
2023-05-16T12:12:58.421Z,101698.41
2023-05-16T12:15:25.504Z,101699.03
2023-05-16T12:17:52.689Z,101692.75
2023-05-16T12:20:19.862Z,101688.69
2023-05-16T12:22:47.003Z,101679.09
2023-05-16T12:25:32.187Z,101683.72
2023-05-16T12:28:02.974Z,101686.97
2023-05-16T12:30:32.746Z,101692.28
2023-05-16T12:33:03.342Z,101691.66
2023-05-16T12:35:33.792Z,101700.41
2023-05-16T12:38:04.163Z,101706.16
2023-05-16T12:40:31.385Z,101749.44
2023-05-16T12:42:58.228Z,101770.19
2023-05-16T12:45:27.879Z,101755.81
2023-05-16T12:47:54.606Z,101743.19
2023-05-16T12:50:22.184Z,101737.34
2023-05-16T12:52:50.633Z,101738.44
2023-05-16T12:55:23.609Z,101739.84
2023-05-16T12:57:50.991Z,101734.09
2023-05-16T13:00:19.909Z,101731.25
2023-05-16T13:02:47.813Z,101721.41
2023-05-16T13:05:14.898Z,101711.41
2023-05-16T13:07:41.526Z,101717.63
2023-05-16T13:10:10.745Z,101712.59
2023-05-16T13:12:39.099Z,101728.56
2023-05-16T13:15:07.548Z,101742.84
2023-05-16T13:17:35.053Z,101749.47
2023-05-16T13:20:03.555Z,101748.06
2023-05-16T13:22:30.013Z,101759.38
2023-05-16T13:24:56.642Z,101752.84
2023-05-16T13:27:23.086Z,101752.38
2023-05-16T13:29:49.794Z,101741.25
2023-05-16T13:32:16.332Z,101744.00
2023-05-16T13:34:42.837Z,101734.16
2023-05-16T13:37:09.334Z,101741.75
2023-05-16T13:39:36.233Z,101769.78
2023-05-16T13:42:03.645Z,101794.03
2023-05-16T13:44:30.176Z,101794.78
2023-05-16T13:46:57.864Z,101799.50
2023-05-16T13:49:25.035Z,101792.22
2023-05-16T13:51:52.125Z,101779.31
2023-05-16T13:54:19.353Z,101775.78
2023-05-16T13:56:46.239Z,101773.31
2023-05-16T13:59:16.807Z,101779.63
2023-05-16T14:01:50.927Z,101771.75
2023-05-16T14:04:17.554Z,101771.75
2023-05-16T14:06:44.155Z,101779.34
2023-05-16T14:09:10.875Z,101756.81
2023-05-16T14:11:37.484Z,101750.94
2023-05-16T14:14:03.986Z,101755.94
2023-05-16T14:16:31.367Z,101752.31
2023-05-16T14:18:57.965Z,101748.00
2023-05-16T14:21:24.471Z,101752.81
2023-05-16T14:23:51.144Z,101735.56
2023-05-16T14:26:22.390Z,101736.09
2023-05-16T14:28:50.008Z,101758.56
2023-05-16T14:31:16.784Z,101791.28
2023-05-16T14:33:43.906Z,101783.06
2023-05-16T14:36:10.516Z,101772.44
2023-05-16T14:38:37.090Z,101758.53
2023-05-16T14:41:03.752Z,101752.06
2023-05-16T14:43:30.972Z,101749.59
2023-05-16T14:45:57.735Z,101734.53
2023-05-16T14:48:24.175Z,101717.81
2023-05-16T14:50:51.544Z,101717.16
2023-05-16T14:53:18.055Z,101714.44
2023-05-16T14:55:45.091Z,101719.28
2023-05-16T14:58:11.835Z,101720.16
2023-05-16T15:00:38.366Z,101725.00
2023-05-16T15:03:04.911Z,101734.00
2023-05-16T15:05:31.976Z,101732.34
2023-05-16T15:07:58.718Z,101739.75
2023-05-16T15:10:25.459Z,101749.56
2023-05-16T15:12:53.060Z,101745.84
2023-05-16T15:15:19.654Z,101749.00
2023-05-16T15:17:46.447Z,101745.00
2023-05-16T15:20:13.247Z,101743.81
2023-05-16T15:22:43.215Z,101744.03
2023-05-16T15:25:10.729Z,101746.19
2023-05-16T15:27:37.251Z,101756.13
2023-05-16T15:30:04.203Z,101760.59
2023-05-16T15:32:30.688Z,101755.75
2023-05-16T15:34:57.523Z,101756.66
2023-05-16T15:37:24.059Z,101773.25
2023-05-16T15:39:50.612Z,101765.88
2023-05-16T15:42:18.960Z,101757.88
2023-05-16T15:44:45.827Z,101765.63
2023-05-16T15:47:12.354Z,101763.81
2023-05-16T15:49:39.225Z,101780.22
2023-05-16T15:52:06.151Z,101785.06
2023-05-16T15:54:32.718Z,101780.75
2023-05-16T15:56:59.291Z,101785.00
2023-05-16T15:59:25.944Z,101784.13
2023-05-16T16:01:52.674Z,101777.38
2023-05-16T16:04:23.272Z,101790.09
2023-05-16T16:06:50.189Z,101777.38
2023-05-16T16:09:16.883Z,101776.03
2023-05-16T16:11:43.380Z,101785.84
2023-05-16T16:14:11.039Z,101786.94
2023-05-16T16:16:39.586Z,101767.19
2023-05-16T16:19:07.369Z,101771.63
2023-05-16T16:21:34.544Z,101769.84
2023-05-16T16:24:01.276Z,101778.16
2023-05-16T16:26:27.981Z,101773.69
2023-05-16T16:28:54.806Z,101771.34
2023-05-16T16:31:21.368Z,101773.00
2023-05-16T16:33:49.185Z,101781.16
2023-05-16T16:36:16.528Z,101778.91
2023-05-16T16:38:43.385Z,101774.75
2023-05-16T16:41:10.050Z,101766.91
2023-05-16T16:43:39.908Z,101784.72
2023-05-16T16:46:09.485Z,101781.66
2023-05-16T16:48:36.635Z,101771.63
2023-05-16T16:51:03.628Z,101784.13
2023-05-16T16:53:30.566Z,101784.97
2023-05-16T16:55:57.020Z,101785.84
2023-05-16T16:58:23.652Z,101783.88
2023-05-16T17:00:50.173Z,101771.34
2023-05-16T17:03:17.255Z,101761.00
2023-05-16T17:05:44.970Z,101773.28
2023-05-16T17:08:12.162Z,101772.31
2023-05-16T17:10:39.195Z,101770.09
2023-05-16T17:13:10.428Z,101779.69
2023-05-16T17:15:37.662Z,101801.59
2023-05-16T17:18:07.318Z,101809.34
2023-05-16T17:20:34.853Z,101799.41
2023-05-16T17:23:02.068Z,101806.06
2023-05-16T17:25:29.292Z,101808.88
2023-05-16T17:27:56.297Z,101806.59
2023-05-16T17:30:23.418Z,101806.09
2023-05-16T17:32:50.210Z,101804.38
2023-05-16T17:35:16.907Z,101804.31
2023-05-16T17:37:43.487Z,101802.81
2023-05-16T17:40:12.813Z,101806.19
2023-05-16T17:42:39.673Z,101803.47
2023-05-16T17:45:08.041Z,101805.31
2023-05-16T17:47:34.739Z,101802.91
2023-05-16T17:50:01.505Z,101817.59
2023-05-16T17:52:28.424Z,101816.94
2023-05-16T17:54:54.877Z,101814.41
2023-05-16T17:57:21.583Z,101821.91
2023-05-16T17:59:48.029Z,101820.97
2023-05-16T18:02:16.225Z,101821.91
2023-05-16T18:04:43.112Z,101812.78
2023-05-16T18:07:09.721Z,101822.00
2023-05-16T18:09:38.709Z,101815.78
2023-05-16T18:12:06.356Z,101830.47
2023-05-16T18:14:33.059Z,101833.69
2023-05-16T18:16:59.621Z,101837.75
2023-05-16T18:19:26.403Z,101835.25
2023-05-16T18:21:53.177Z,101836.72
2023-05-16T18:24:19.707Z,101834.31
2023-05-16T18:26:48.263Z,101839.88
2023-05-16T18:29:15.097Z,101847.63
2023-05-16T18:31:42.345Z,101845.81
2023-05-16T18:34:10.127Z,101846.31
2023-05-16T18:36:36.706Z,101847.91
2023-05-16T18:39:03.777Z,101859.03
2023-05-16T18:41:30.347Z,101868.66
2023-05-16T18:43:56.855Z,101858.97
2023-05-16T18:46:23.354Z,101859.63
2023-05-16T18:48:50.165Z,101858.16
2023-05-16T18:51:16.695Z,101869.19
2023-05-16T18:53:43.225Z,101868.22
2023-05-16T18:56:09.964Z,101872.81
2023-05-16T18:58:36.926Z,101882.81
2023-05-16T19:01:04.101Z,101877.78
2023-05-16T19:03:31.040Z,101877.91
2023-05-16T19:05:58.170Z,101879.97
2023-05-16T19:08:27.146Z,101884.06
2023-05-16T19:10:57.964Z,101891.97
2023-05-16T19:13:24.779Z,101887.66
2023-05-16T19:15:53.244Z,101892.19
2023-05-16T19:18:20.014Z,101889.53
2023-05-16T19:20:46.618Z,101886.44
2023-05-16T19:23:13.214Z,101888.97
2023-05-16T19:25:45.631Z,101905.38
2023-05-16T19:28:12.305Z,101894.13
2023-05-16T19:30:39.749Z,101898.09
2023-05-16T19:33:06.705Z,101900.59
2023-05-16T19:35:33.273Z,101903.94
2023-05-16T19:38:00.437Z,101912.47
2023-05-16T19:40:26.909Z,101903.13
2023-05-16T19:42:53.713Z,101905.78
2023-05-16T19:45:20.195Z,101903.59
2023-05-16T19:47:46.942Z,101905.38
2023-05-16T19:50:13.508Z,101909.34
2023-05-16T19:52:40.228Z,101914.03
2023-05-16T19:55:07.700Z,101916.69
2023-05-16T19:57:34.281Z,101918.84
2023-05-16T20:00:00.846Z,101922.41
2023-05-16T20:02:27.577Z,101922.41
2023-05-16T20:04:54.125Z,101921.09
2023-05-16T20:07:20.683Z,101925.78
2023-05-16T20:09:47.185Z,101926.75
2023-05-16T20:12:13.989Z,101920.75
2023-05-16T20:14:40.489Z,101931.31
2023-05-16T20:17:06.987Z,101922.50
2023-05-16T20:19:33.688Z,101923.91
2023-05-16T20:22:01.321Z,101916.41
2023-05-16T20:24:27.821Z,101923.09
2023-05-16T20:26:54.415Z,101923.78
2023-05-16T20:29:20.880Z,101920.22
2023-05-16T20:31:47.683Z,101928.13
2023-05-16T20:34:14.196Z,101929.06
2023-05-16T20:36:40.852Z,101923.34
2023-05-16T20:39:08.928Z,101927.06
2023-05-16T20:41:35.788Z,101931.00
2023-05-16T20:44:02.282Z,101931.00
2023-05-16T20:46:28.848Z,101925.00
2023-05-16T20:48:55.423Z,101924.06
2023-05-16T20:51:22.198Z,101923.09
2023-05-16T20:53:48.659Z,101926.56
2023-05-16T20:56:15.461Z,101926.31
2023-05-16T20:58:42.300Z,101920.47
2023-05-16T21:01:09.152Z,101924.88
2023-05-16T21:03:35.766Z,101920.47
2023-05-16T21:06:02.265Z,101924.31
2023-05-16T21:08:28.953Z,101923.84
2023-05-16T21:10:55.547Z,101919.38
2023-05-16T21:13:22.215Z,101917.09
2023-05-16T21:15:49.399Z,101916.78
2023-05-16T21:18:16.057Z,101916.66
2023-05-16T21:20:42.872Z,101912.09
2023-05-16T21:23:09.369Z,101906.59
2023-05-16T21:25:36.077Z,101907.44
2023-05-16T21:28:03.585Z,101917.88
2023-05-16T21:30:30.086Z,101917.38
2023-05-16T21:32:56.677Z,101921.44
2023-05-16T21:35:23.978Z,101919.78
2023-05-16T21:37:50.634Z,101927.94
2023-05-16T21:40:19.110Z,101928.84
2023-05-16T21:42:46.062Z,101922.38
2023-05-16T21:45:16.295Z,101925.63
2023-05-16T21:47:43.974Z,101925.13
2023-05-16T21:50:10.712Z,101915.59
2023-05-16T21:52:38.013Z,101915.19
2023-05-16T21:55:05.822Z,101909.00
2023-05-16T21:57:33.020Z,101909.19
2023-05-16T21:59:59.462Z,101915.91
2023-05-16T22:02:26.476Z,101910.72
2023-05-16T22:04:53.240Z,101914.84
2023-05-16T22:07:20.458Z,101913.75
2023-05-16T22:09:50.740Z,101906.56
2023-05-16T22:12:17.399Z,101912.72
2023-05-16T22:14:43.857Z,101915.44
2023-05-16T22:17:10.536Z,101912.06
2023-05-16T22:19:37.210Z,101910.16
2023-05-16T22:22:03.849Z,101914.69
2023-05-16T22:24:30.358Z,101921.22
2023-05-16T22:26:57.034Z,101917.34
2023-05-16T22:29:23.510Z,101914.47
2023-05-16T22:31:50.094Z,101913.75
2023-05-16T22:34:16.773Z,101908.25
2023-05-16T22:36:43.540Z,101903.91
2023-05-16T22:39:10.646Z,101912.78
2023-05-16T22:41:37.591Z,101913.06
2023-05-16T22:44:04.072Z,101907.28
2023-05-16T22:46:30.687Z,101910.53
2023-05-16T22:48:57.183Z,101918.56
2023-05-16T22:51:23.805Z,101911.63
2023-05-16T22:53:50.290Z,101908.09
2023-05-16T22:56:16.955Z,101909.72
2023-05-16T22:58:43.418Z,101911.50
2023-05-16T23:01:10.037Z,101919.91
2023-05-16T23:03:36.568Z,101912.38
2023-05-16T23:06:03.403Z,101914.03
2023-05-16T23:08:29.981Z,101915.13
2023-05-16T23:10:56.680Z,101920.94
2023-05-16T23:13:23.300Z,101925.25
2023-05-16T23:15:49.918Z,101926.31
2023-05-16T23:18:16.470Z,101928.16
2023-05-16T23:20:43.154Z,101937.97
2023-05-16T23:23:09.644Z,101938.19
2023-05-16T23:25:36.441Z,101935.78
2023-05-16T23:28:03.036Z,101933.63
2023-05-16T23:30:29.824Z,101933.53
2023-05-16T23:32:56.428Z,101949.09
2023-05-16T23:35:23.138Z,101942.63
2023-05-16T23:37:49.616Z,101949.91
2023-05-16T23:40:16.354Z,101959.78
2023-05-16T23:42:42.818Z,101962.38
2023-05-16T23:45:10.355Z,101957.56
2023-05-16T23:47:36.986Z,101950.84
2023-05-16T23:50:04.103Z,101951.28
2023-05-16T23:52:30.685Z,101955.34
2023-05-16T23:54:57.337Z,101954.47
2023-05-16T23:57:23.808Z,101950.78
2023-05-16T23:59:50.543Z,101955.25
